sensor_id;sensor_type;location;lat;lon;timestamp;temperature;humidity
43015;DHT22;28637;50.554;7.032;2023-07-13T00:04:26;15.80;99.90
43015;DHT22;28637;50.554;7.032;2023-07-13T00:09:27;15.60;99.90
43015;DHT22;28637;50.554;7.032;2023-07-13T00:14:28;15.40;99.90
43015;DHT22;28637;50.554;7.032;2023-07-13T00:19:29;15.10;99.90
43015;DHT22;28637;50.554;7.032;2023-07-13T00:24:30;14.90;99.90
43015;DHT22;28637;50.554;7.032;2023-07-13T00:29:30;14.70;99.90
43015;DHT22;28637;50.554;7.032;2023-07-13T00:34:31;14.70;99.90
43015;DHT22;28637;50.554;7.032;2023-07-13T00:39:33;14.60;99.90
43015;DHT22;28637;50.554;7.032;2023-07-13T00:44:34;14.40;99.90
43015;DHT22;28637;50.554;7.032;2023-07-13T00:49:35;14.20;99.90
43015;DHT22;28637;50.554;7.032;2023-07-13T00:54:37;14.00;99.90
43015;DHT22;28637;50.554;7.032;2023-07-13T00:59:40;13.80;99.90
43015;DHT22;28637;50.554;7.032;2023-07-13T01:04:42;13.80;99.90
43015;DHT22;28637;50.554;7.032;2023-07-13T01:09:44;13.50;99.90
43015;DHT22;28637;50.554;7.032;2023-07-13T01:14:45;13.40;99.90
43015;DHT22;28637;50.554;7.032;2023-07-13T01:19:46;13.30;99.90
43015;DHT22;28637;50.554;7.032;2023-07-13T01:24:47;13.30;99.90
43015;DHT22;28637;50.554;7.032;2023-07-13T01:29:48;13.40;99.90
43015;DHT22;28637;50.554;7.032;2023-07-13T01:34:51;13.60;99.90
43015;DHT22;28637;50.554;7.032;2023-07-13T01:39:54;13.80;99.90
43015;DHT22;28637;50.554;7.032;2023-07-13T01:44:55;13.90;99.90
43015;DHT22;28637;50.554;7.032;2023-07-13T01:49:55;13.90;99.90
43015;DHT22;28637;50.554;7.032;2023-07-13T01:54:56;13.70;99.90
43015;DHT22;28637;50.554;7.032;2023-07-13T01:59:56;13.50;99.90
43015;DHT22;28637;50.554;7.032;2023-07-13T02:04:57;13.40;99.90
43015;DHT22;28637;50.554;7.032;2023-07-13T02:09:58;13.30;99.90
43015;DHT22;28637;50.554;7.032;2023-07-13T02:14:58;13.20;99.90
43015;DHT22;28637;50.554;7.032;2023-07-13T02:19:59;13.10;99.90
43015;DHT22;28637;50.554;7.032;2023-07-13T02:25:00;13.10;99.90
43015;DHT22;28637;50.554;7.032;2023-07-13T02:30:01;12.90;99.90
43015;DHT22;28637;50.554;7.032;2023-07-13T02:35:01;12.90;99.90
43015;DHT22;28637;50.554;7.032;2023-07-13T02:40:03;13.00;99.90
43015;DHT22;28637;50.554;7.032;2023-07-13T02:45:09;13.00;99.90
43015;DHT22;28637;50.554;7.032;2023-07-13T02:50:10;12.90;99.90
43015;DHT22;28637;50.554;7.032;2023-07-13T02:55:10;12.90;99.90
43015;DHT22;28637;50.554;7.032;2023-07-13T03:00:11;12.80;99.90
43015;DHT22;28637;50.554;7.032;2023-07-13T03:05:12;12.70;99.90
43015;DHT22;28637;50.554;7.032;2023-07-13T03:10:13;12.80;99.90
43015;DHT22;28637;50.554;7.032;2023-07-13T03:15:14;12.90;99.90
43015;DHT22;28637;50.554;7.032;2023-07-13T03:20:14;13.00;99.90
43015;DHT22;28637;50.554;7.032;2023-07-13T03:25:15;13.00;99.90
43015;DHT22;28637;50.554;7.032;2023-07-13T03:30:16;13.00;99.90
43015;DHT22;28637;50.554;7.032;2023-07-13T03:35:17;13.10;99.90
43015;DHT22;28637;50.554;7.032;2023-07-13T03:40:17;13.10;99.90
43015;DHT22;28637;50.554;7.032;2023-07-13T03:45:19;13.20;99.90
43015;DHT22;28637;50.554;7.032;2023-07-13T03:50:19;13.40;99.90
43015;DHT22;28637;50.554;7.032;2023-07-13T03:55:20;13.60;99.90
43015;DHT22;28637;50.554;7.032;2023-07-13T04:00:21;13.60;99.90
43015;DHT22;28637;50.554;7.032;2023-07-13T04:05:21;13.70;99.90
43015;DHT22;28637;50.554;7.032;2023-07-13T04:10:22;13.80;99.90
43015;DHT22;28637;50.554;7.032;2023-07-13T04:15:23;13.80;99.90
43015;DHT22;28637;50.554;7.032;2023-07-13T04:20:25;13.80;99.90
43015;DHT22;28637;50.554;7.032;2023-07-13T04:25:26;13.80;99.90
43015;DHT22;28637;50.554;7.032;2023-07-13T04:30:26;13.80;99.90
43015;DHT22;28637;50.554;7.032;2023-07-13T04:35:27;13.90;99.90
43015;DHT22;28637;50.554;7.032;2023-07-13T04:40:28;14.00;99.90
43015;DHT22;28637;50.554;7.032;2023-07-13T04:45:29;14.10;99.90
43015;DHT22;28637;50.554;7.032;2023-07-13T04:50:31;14.10;99.90
43015;DHT22;28637;50.554;7.032;2023-07-13T04:55:32;14.10;99.90
43015;DHT22;28637;50.554;7.032;2023-07-13T05:00:32;14.20;99.90
43015;DHT22;28637;50.554;7.032;2023-07-13T05:05:33;14.40;99.90
43015;DHT22;28637;50.554;7.032;2023-07-13T05:10:35;14.60;99.90
43015;DHT22;28637;50.554;7.032;2023-07-13T05:15:36;14.80;99.90
43015;DHT22;28637;50.554;7.032;2023-07-13T05:20:36;14.90;99.90
43015;DHT22;28637;50.554;7.032;2023-07-13T05:25:37;15.00;99.90
43015;DHT22;28637;50.554;7.032;2023-07-13T05:30:37;15.00;99.90
43015;DHT22;28637;50.554;7.032;2023-07-13T05:35:38;15.00;99.90
43015;DHT22;28637;50.554;7.032;2023-07-13T05:40:39;15.00;99.90
43015;DHT22;28637;50.554;7.032;2023-07-13T05:45:40;15.30;99.90
43015;DHT22;28637;50.554;7.032;2023-07-13T05:50:41;15.40;99.90
43015;DHT22;28637;50.554;7.032;2023-07-13T05:55:45;15.60;99.90
43015;DHT22;28637;50.554;7.032;2023-07-13T06:01:04;15.90;99.90
43015;DHT22;28637;50.554;7.032;2023-07-13T06:06:06;16.10;99.90
43015;DHT22;28637;50.554;7.032;2023-07-13T06:11:16;16.40;99.90
43015;DHT22;28637;50.554;7.032;2023-07-13T06:16:17;16.70;99.90
43015;DHT22;28637;50.554;7.032;2023-07-13T06:21:20;16.80;99.90
43015;DHT22;28637;50.554;7.032;2023-07-13T06:26:21;17.10;99.90
43015;DHT22;28637;50.554;7.032;2023-07-13T06:31:22;17.30;99.90
43015;DHT22;28637;50.554;7.032;2023-07-13T06:36:23;17.50;99.90
43015;DHT22;28637;50.554;7.032;2023-07-13T06:41:23;17.60;99.90
43015;DHT22;28637;50.554;7.032;2023-07-13T06:46:29;17.80;99.90
43015;DHT22;28637;50.554;7.032;2023-07-13T06:51:30;17.90;99.90
43015;DHT22;28637;50.554;7.032;2023-07-13T06:56:30;18.00;99.90
43015;DHT22;28637;50.554;7.032;2023-07-13T07:01:31;18.10;99.90
43015;DHT22;28637;50.554;7.032;2023-07-13T07:06:33;18.40;99.90
43015;DHT22;28637;50.554;7.032;2023-07-13T07:11:33;18.50;99.90
43015;DHT22;28637;50.554;7.032;2023-07-13T07:16:34;18.80;99.90
43015;DHT22;28637;50.554;7.032;2023-07-13T07:21:35;19.10;99.90
43015;DHT22;28637;50.554;7.032;2023-07-13T07:26:35;19.40;99.90
43015;DHT22;28637;50.554;7.032;2023-07-13T07:31:36;19.40;99.90
43015;DHT22;28637;50.554;7.032;2023-07-13T07:36:37;19.60;99.90
43015;DHT22;28637;50.554;7.032;2023-07-13T07:41:38;19.70;99.90
43015;DHT22;28637;50.554;7.032;2023-07-13T07:46:39;20.00;99.90
43015;DHT22;28637;50.554;7.032;2023-07-13T07:51:41;19.90;99.90
43015;DHT22;28637;50.554;7.032;2023-07-13T07:56:42;20.10;99.90
43015;DHT22;28637;50.554;7.032;2023-07-13T08:01:42;20.20;99.90
43015;DHT22;28637;50.554;7.032;2023-07-13T08:06:43;20.30;99.90
43015;DHT22;28637;50.554;7.032;2023-07-13T08:11:44;20.60;99.90
43015;DHT22;28637;50.554;7.032;2023-07-13T08:16:45;20.70;99.90
43015;DHT22;28637;50.554;7.032;2023-07-13T08:21:45;20.80;99.90
43015;DHT22;28637;50.554;7.032;2023-07-13T08:26:48;20.80;99.90
43015;DHT22;28637;50.554;7.032;2023-07-13T08:31:49;21.00;99.90
43015;DHT22;28637;50.554;7.032;2023-07-13T08:36:50;21.00;99.90
43015;DHT22;28637;50.554;7.032;2023-07-13T08:41:56;21.20;99.90
43015;DHT22;28637;50.554;7.032;2023-07-13T08:46:59;21.20;99.20
43015;DHT22;28637;50.554;7.032;2023-07-13T08:52:04;21.00;99.80
43015;DHT22;28637;50.554;7.032;2023-07-13T08:57:14;20.90;99.40
43015;DHT22;28637;50.554;7.032;2023-07-13T09:08:07;21.00;99.90
43015;DHT22;28637;50.554;7.032;2023-07-13T09:13:30;21.40;99.10
43015;DHT22;28637;50.554;7.032;2023-07-13T09:18:45;21.70;99.30
43015;DHT22;28637;50.554;7.032;2023-07-13T09:23:47;22.10;97.90
43015;DHT22;28637;50.554;7.032;2023-07-13T09:28:52;22.30;96.80
43015;DHT22;28637;50.554;7.032;2023-07-13T09:33:54;22.10;95.80
43015;DHT22;28637;50.554;7.032;2023-07-13T09:44:12;22.70;95.60
43015;DHT22;28637;50.554;7.032;2023-07-13T09:49:13;22.30;95.80
43015;DHT22;28637;50.554;7.032;2023-07-13T09:54:23;22.10;96.70
43015;DHT22;28637;50.554;7.032;2023-07-13T09:59:29;22.10;94.70
43015;DHT22;28637;50.554;7.032;2023-07-13T10:04:34;22.10;94.10
43015;DHT22;28637;50.554;7.032;2023-07-13T10:09:35;22.50;94.70
43015;DHT22;28637;50.554;7.032;2023-07-13T10:14:35;22.20;93.30
43015;DHT22;28637;50.554;7.032;2023-07-13T10:19:37;22.10;94.50
43015;DHT22;28637;50.554;7.032;2023-07-13T10:24:39;22.50;95.20
43015;DHT22;28637;50.554;7.032;2023-07-13T10:29:44;22.30;93.50
43015;DHT22;28637;50.554;7.032;2023-07-13T10:34:46;22.10;94.80
43015;DHT22;28637;50.554;7.032;2023-07-13T10:39:54;22.10;93.80
43015;DHT22;28637;50.554;7.032;2023-07-13T10:44:57;22.00;93.40
43015;DHT22;28637;50.554;7.032;2023-07-13T10:50:00;22.30;95.40
43015;DHT22;28637;50.554;7.032;2023-07-13T10:55:02;21.90;93.20
43015;DHT22;28637;50.554;7.032;2023-07-13T11:05:29;22.10;94.10
43015;DHT22;28637;50.554;7.032;2023-07-13T11:15:51;21.60;93.20
43015;DHT22;28637;50.554;7.032;2023-07-13T11:20:51;21.80;93.70
43015;DHT22;28637;50.554;7.032;2023-07-13T11:25:52;21.90;92.90
43015;DHT22;28637;50.554;7.032;2023-07-13T11:31:01;21.80;94.50
43015;DHT22;28637;50.554;7.032;2023-07-13T11:36:04;22.10;93.60
43015;DHT22;28637;50.554;7.032;2023-07-13T11:41:14;22.10;93.20
43015;DHT22;28637;50.554;7.032;2023-07-13T11:46:20;22.20;92.90
43015;DHT22;28637;50.554;7.032;2023-07-13T11:51:26;22.10;92.40
43015;DHT22;28637;50.554;7.032;2023-07-13T11:56:28;21.80;92.90
43015;DHT22;28637;50.554;7.032;2023-07-13T12:01:31;21.80;93.30
43015;DHT22;28637;50.554;7.032;2023-07-13T12:06:35;21.80;93.00
43015;DHT22;28637;50.554;7.032;2023-07-13T12:11:42;21.80;92.70
43015;DHT22;28637;50.554;7.032;2023-07-13T12:16:47;21.80;92.90
43015;DHT22;28637;50.554;7.032;2023-07-13T12:21:50;21.70;93.00
43015;DHT22;28637;50.554;7.032;2023-07-13T12:27:00;21.70;93.50
43015;DHT22;28637;50.554;7.032;2023-07-13T12:32:02;21.60;93.50
43015;DHT22;28637;50.554;7.032;2023-07-13T12:37:11;21.60;93.30
43015;DHT22;28637;50.554;7.032;2023-07-13T12:42:28;21.80;94.60
43015;DHT22;28637;50.554;7.032;2023-07-13T12:47:29;21.90;94.10
43015;DHT22;28637;50.554;7.032;2023-07-13T12:52:33;21.90;94.30
43015;DHT22;28637;50.554;7.032;2023-07-13T12:57:39;21.90;94.00
43015;DHT22;28637;50.554;7.032;2023-07-13T13:02:40;22.00;94.40
43015;DHT22;28637;50.554;7.032;2023-07-13T13:07:41;22.10;94.60
43015;DHT22;28637;50.554;7.032;2023-07-13T13:12:42;22.20;94.40
43015;DHT22;28637;50.554;7.032;2023-07-13T13:17:43;22.10;94.60
43015;DHT22;28637;50.554;7.032;2023-07-13T13:22:44;22.10;94.50
43015;DHT22;28637;50.554;7.032;2023-07-13T13:27:45;21.80;93.50
43015;DHT22;28637;50.554;7.032;2023-07-13T13:32:47;21.70;94.70
43015;DHT22;28637;50.554;7.032;2023-07-13T13:37:51;21.80;95.00
43015;DHT22;28637;50.554;7.032;2023-07-13T13:42:53;21.80;93.80
43015;DHT22;28637;50.554;7.032;2023-07-13T13:47:55;21.70;93.60
43015;DHT22;28637;50.554;7.032;2023-07-13T13:52:56;21.30;93.50
43015;DHT22;28637;50.554;7.032;2023-07-13T13:57:56;21.20;93.60
43015;DHT22;28637;50.554;7.032;2023-07-13T14:02:57;21.10;94.20
43015;DHT22;28637;50.554;7.032;2023-07-13T14:07:58;21.30;94.40
43015;DHT22;28637;50.554;7.032;2023-07-13T14:13:00;21.40;94.10
43015;DHT22;28637;50.554;7.032;2023-07-13T14:18:00;21.30;94.00
43015;DHT22;28637;50.554;7.032;2023-07-13T14:23:01;21.40;93.90
43015;DHT22;28637;50.554;7.032;2023-07-13T14:28:21;21.70;94.60
43015;DHT22;28637;50.554;7.032;2023-07-13T14:33:23;22.10;93.90
43015;DHT22;28637;50.554;7.032;2023-07-13T14:38:23;22.20;93.60
43015;DHT22;28637;50.554;7.032;2023-07-13T14:43:24;22.70;93.00
43015;DHT22;28637;50.554;7.032;2023-07-13T14:48:28;23.00;92.50
43015;DHT22;28637;50.554;7.032;2023-07-13T14:53:29;22.90;92.30
43015;DHT22;28637;50.554;7.032;2023-07-13T14:58:29;22.70;92.70
43015;DHT22;28637;50.554;7.032;2023-07-13T15:03:32;22.70;91.70
43015;DHT22;28637;50.554;7.032;2023-07-13T15:08:33;23.00;92.50
43015;DHT22;28637;50.554;7.032;2023-07-13T15:13:35;22.90;92.40
43015;DHT22;28637;50.554;7.032;2023-07-13T15:18:35;22.70;92.70
43015;DHT22;28637;50.554;7.032;2023-07-13T15:23:40;23.40;92.80
43015;DHT22;28637;50.554;7.032;2023-07-13T15:28:42;23.20;91.90
43015;DHT22;28637;50.554;7.032;2023-07-13T15:33:43;22.90;92.20
43015;DHT22;28637;50.554;7.032;2023-07-13T15:38:45;23.10;92.30
43015;DHT22;28637;50.554;7.032;2023-07-13T15:43:47;23.20;91.60
43015;DHT22;28637;50.554;7.032;2023-07-13T15:48:51;23.20;91.20
43015;DHT22;28637;50.554;7.032;2023-07-13T15:53:58;23.10;91.20
43015;DHT22;28637;50.554;7.032;2023-07-13T15:58:59;23.20;90.90
43015;DHT22;28637;50.554;7.032;2023-07-13T16:04:00;23.50;90.90
43015;DHT22;28637;50.554;7.032;2023-07-13T16:09:01;23.60;90.70
43015;DHT22;28637;50.554;7.032;2023-07-13T16:14:03;23.60;90.40
43015;DHT22;28637;50.554;7.032;2023-07-13T16:19:04;23.70;90.50
43015;DHT22;28637;50.554;7.032;2023-07-13T16:24:05;23.90;90.40
43015;DHT22;28637;50.554;7.032;2023-07-13T16:29:13;24.00;89.70
43015;DHT22;28637;50.554;7.032;2023-07-13T16:34:15;23.90;89.50
43015;DHT22;28637;50.554;7.032;2023-07-13T16:39:15;24.00;90.10
43015;DHT22;28637;50.554;7.032;2023-07-13T16:44:18;23.70;89.60
43015;DHT22;28637;50.554;7.032;2023-07-13T16:49:26;23.60;90.40
43015;DHT22;28637;50.554;7.032;2023-07-13T16:54:32;23.20;90.50
43015;DHT22;28637;50.554;7.032;2023-07-13T16:59:34;23.10;90.70
43015;DHT22;28637;50.554;7.032;2023-07-13T17:04:35;23.00;91.60
43015;DHT22;28637;50.554;7.032;2023-07-13T17:09:35;22.80;91.20
43015;DHT22;28637;50.554;7.032;2023-07-13T17:14:36;22.70;91.90
43015;DHT22;28637;50.554;7.032;2023-07-13T17:19:37;22.70;93.30
43015;DHT22;28637;50.554;7.032;2023-07-13T17:24:38;22.50;94.00
43015;DHT22;28637;50.554;7.032;2023-07-13T17:29:39;22.50;94.90
43015;DHT22;28637;50.554;7.032;2023-07-13T17:34:39;22.60;95.70
43015;DHT22;28637;50.554;7.032;2023-07-13T17:39:46;22.70;95.50
43015;DHT22;28637;50.554;7.032;2023-07-13T17:44:46;22.60;95.70
43015;DHT22;28637;50.554;7.032;2023-07-13T17:49:47;22.40;95.60
43015;DHT22;28637;50.554;7.032;2023-07-13T17:54:47;22.10;96.40
43015;DHT22;28637;50.554;7.032;2023-07-13T17:59:50;21.80;97.10
43015;DHT22;28637;50.554;7.032;2023-07-13T18:04:51;21.70;97.40
43015;DHT22;28637;50.554;7.032;2023-07-13T18:09:51;21.50;97.60
43015;DHT22;28637;50.554;7.032;2023-07-13T18:14:52;21.40;97.90
43015;DHT22;28637;50.554;7.032;2023-07-13T18:19:52;21.30;98.00
43015;DHT22;28637;50.554;7.032;2023-07-13T18:24:53;21.20;98.20
43015;DHT22;28637;50.554;7.032;2023-07-13T18:29:54;21.20;98.60
43015;DHT22;28637;50.554;7.032;2023-07-13T18:34:56;21.10;98.50
43015;DHT22;28637;50.554;7.032;2023-07-13T18:39:58;21.00;98.80
43015;DHT22;28637;50.554;7.032;2023-07-13T18:44:59;21.00;99.30
43015;DHT22;28637;50.554;7.032;2023-07-13T18:50:00;20.90;99.80
43015;DHT22;28637;50.554;7.032;2023-07-13T18:55:01;20.90;99.90
43015;DHT22;28637;50.554;7.032;2023-07-13T19:00:01;20.80;99.90
43015;DHT22;28637;50.554;7.032;2023-07-13T19:05:13;20.70;99.90
43015;DHT22;28637;50.554;7.032;2023-07-13T19:10:22;20.60;99.90
43015;DHT22;28637;50.554;7.032;2023-07-13T19:20:27;19.90;99.90
43015;DHT22;28637;50.554;7.032;2023-07-13T19:25:29;19.80;99.90
43015;DHT22;28637;50.554;7.032;2023-07-13T19:30:30;19.70;99.90
43015;DHT22;28637;50.554;7.032;2023-07-13T19:35:30;19.50;99.90
43015;DHT22;28637;50.554;7.032;2023-07-13T19:40:32;19.40;99.90
43015;DHT22;28637;50.554;7.032;2023-07-13T19:45:32;19.20;99.90
43015;DHT22;28637;50.554;7.032;2023-07-13T19:50:34;19.00;99.90
43015;DHT22;28637;50.554;7.032;2023-07-13T19:55:36;18.80;99.90
43015;DHT22;28637;50.554;7.032;2023-07-13T20:00:37;18.60;99.90
43015;DHT22;28637;50.554;7.032;2023-07-13T20:05:39;18.30;99.90
43015;DHT22;28637;50.554;7.032;2023-07-13T20:10:39;18.30;99.90
43015;DHT22;28637;50.554;7.032;2023-07-13T20:15:40;18.10;99.90
43015;DHT22;28637;50.554;7.032;2023-07-13T20:20:43;17.90;99.90
43015;DHT22;28637;50.554;7.032;2023-07-13T20:25:48;17.70;99.90
43015;DHT22;28637;50.554;7.032;2023-07-13T20:30:50;17.50;99.90
43015;DHT22;28637;50.554;7.032;2023-07-13T20:35:52;17.50;99.90
43015;DHT22;28637;50.554;7.032;2023-07-13T20:40:53;17.30;99.90
43015;DHT22;28637;50.554;7.032;2023-07-13T20:45:57;17.20;99.90
43015;DHT22;28637;50.554;7.032;2023-07-13T20:50:59;16.90;99.90
43015;DHT22;28637;50.554;7.032;2023-07-13T20:56:01;16.60;99.90
43015;DHT22;28637;50.554;7.032;2023-07-13T21:01:01;16.60;99.90
43015;DHT22;28637;50.554;7.032;2023-07-13T21:06:14;16.60;99.90
43015;DHT22;28637;50.554;7.032;2023-07-13T21:11:16;16.40;99.90
43015;DHT22;28637;50.554;7.032;2023-07-13T21:16:20;16.20;99.90
43015;DHT22;28637;50.554;7.032;2023-07-13T21:21:22;16.00;99.90
43015;DHT22;28637;50.554;7.032;2023-07-13T21:26:24;15.90;99.90
43015;DHT22;28637;50.554;7.032;2023-07-13T21:31:27;15.60;99.90
43015;DHT22;28637;50.554;7.032;2023-07-13T21:36:29;15.50;99.90
43015;DHT22;28637;50.554;7.032;2023-07-13T21:41:31;15.50;99.90
43015;DHT22;28637;50.554;7.032;2023-07-13T21:46:32;15.60;99.90
43015;DHT22;28637;50.554;7.032;2023-07-13T21:51:33;15.50;99.90
43015;DHT22;28637;50.554;7.032;2023-07-13T21:56:34;15.50;99.90
43015;DHT22;28637;50.554;7.032;2023-07-13T22:01:35;15.50;99.90
43015;DHT22;28637;50.554;7.032;2023-07-13T22:06:37;15.50;99.90
43015;DHT22;28637;50.554;7.032;2023-07-13T22:11:38;15.50;99.90
43015;DHT22;28637;50.554;7.032;2023-07-13T22:16:38;15.40;99.90
43015;DHT22;28637;50.554;7.032;2023-07-13T22:21:40;15.20;99.90
43015;DHT22;28637;50.554;7.032;2023-07-13T22:26:40;15.10;99.90
43015;DHT22;28637;50.554;7.032;2023-07-13T22:31:42;15.10;99.90
43015;DHT22;28637;50.554;7.032;2023-07-13T22:36:43;15.10;99.90
43015;DHT22;28637;50.554;7.032;2023-07-13T22:41:43;15.20;99.90
43015;DHT22;28637;50.554;7.032;2023-07-13T22:46:44;15.20;99.90
43015;DHT22;28637;50.554;7.032;2023-07-13T22:51:46;15.10;99.90
43015;DHT22;28637;50.554;7.032;2023-07-13T22:56:47;15.00;99.90
43015;DHT22;28637;50.554;7.032;2023-07-13T23:01:47;15.00;99.90
43015;DHT22;28637;50.554;7.032;2023-07-13T23:06:48;15.00;99.90
43015;DHT22;28637;50.554;7.032;2023-07-13T23:11:53;15.00;99.90
43015;DHT22;28637;50.554;7.032;2023-07-13T23:16:55;15.10;99.90
43015;DHT22;28637;50.554;7.032;2023-07-13T23:21:57;15.10;99.90
43015;DHT22;28637;50.554;7.032;2023-07-13T23:26:58;15.10;99.90
43015;DHT22;28637;50.554;7.032;2023-07-13T23:31:58;15.20;99.90
43015;DHT22;28637;50.554;7.032;2023-07-13T23:37:00;15.10;99.90
43015;DHT22;28637;50.554;7.032;2023-07-13T23:42:00;15.00;99.90
43015;DHT22;28637;50.554;7.032;2023-07-13T23:47:01;15.00;99.90
43015;DHT22;28637;50.554;7.032;2023-07-13T23:52:09;15.00;99.90
43015;DHT22;28637;50.554;7.032;2023-07-13T23:57:11;14.90;99.90
